createdAt,value
2024-01-29T00:01:40.679Z,16.9
2024-01-29T00:07:39.570Z,16.8
2024-01-29T00:13:37.089Z,17.5
2024-01-29T00:19:31.879Z,18
2024-01-29T00:25:26.354Z,17.8
2024-01-29T00:31:04.712Z,17.3
2024-01-29T00:37:05.595Z,16.9
2024-01-29T00:43:00.369Z,17.4
2024-01-29T00:48:38.970Z,18
2024-01-29T00:54:41.402Z,17.9
2024-01-29T01:00:36.657Z,17.4
2024-01-29T01:06:38.142Z,16.9
2024-01-29T01:12:31.720Z,17.1
2024-01-29T01:18:11.227Z,17.9
2024-01-29T01:24:06.225Z,18.1
2024-01-29T01:30:00.518Z,17.6
2024-01-29T01:35:55.734Z,17.1
2024-01-29T01:41:52.615Z,17.1
2024-01-29T01:47:51.761Z,17.6
2024-01-29T01:53:49.368Z,17.6
2024-01-29T01:59:46.316Z,18.1
2024-01-29T02:05:42.704Z,18.3
2024-01-29T02:11:37.629Z,17.8
2024-01-29T02:17:31.752Z,17.2
2024-01-29T02:23:26.640Z,17.1
2024-01-29T02:29:21.293Z,17.9
2024-01-29T02:35:18.331Z,18.1
2024-01-29T02:41:12.534Z,17.6
2024-01-29T02:46:51.030Z,18
2024-01-29T02:52:47.192Z,18.3
2024-01-29T02:58:41.228Z,17.8
2024-01-29T03:04:36.825Z,17.3
2024-01-29T03:10:35.611Z,16.9
2024-01-29T03:16:16.330Z,17.5
2024-01-29T03:22:11.742Z,18
2024-01-29T03:28:09.151Z,17.9
2024-01-29T03:34:03.329Z,17.8
2024-01-29T03:39:42.292Z,18.2
2024-01-29T03:45:36.424Z,18.1
2024-01-29T03:51:31.508Z,17.7
2024-01-29T03:57:28.745Z,18.1
2024-01-29T04:03:25.745Z,18.3
2024-01-29T04:09:06.639Z,17.8
2024-01-29T04:15:00.508Z,17.8
2024-01-29T04:21:00.981Z,17.9
2024-01-29T04:26:58.138Z,17.8
2024-01-29T04:32:37.388Z,18.4
2024-01-29T04:38:32.529Z,18.3
2024-01-29T04:44:27.603Z,17.8
2024-01-29T04:50:08.766Z,18
2024-01-29T04:55:47.992Z,18.3
2024-01-29T05:01:11.148Z,17.9
2024-01-29T05:06:54.929Z,17.4
2024-01-29T05:12:34.792Z,16.9
2024-01-29T05:17:57.852Z,17.1
2024-01-29T05:23:40.137Z,17.9
2024-01-29T05:29:35.576Z,18.1
2024-01-29T05:35:24.847Z,17.6
2024-01-29T05:40:47.740Z,17.8
2024-01-29T05:46:41.886Z,18.3
2024-01-29T05:52:21.570Z,18
2024-01-29T05:58:15.846Z,17.6
2024-01-29T06:03:55.007Z,18.1
2024-01-29T06:09:37.248Z,18.1
2024-01-29T06:15:18.676Z,17.7
2024-01-29T06:21:24.367Z,17.9
2024-01-29T06:27:05.765Z,18.2
2024-01-29T06:33:00.891Z,17.9
2024-01-29T06:38:58.142Z,17.7
2024-01-29T06:44:54.638Z,17.9
2024-01-29T06:50:49.667Z,17.6
2024-01-29T06:56:44.755Z,18.1
2024-01-29T07:02:40.505Z,18.3
2024-01-29T07:08:39.673Z,17.8
2024-01-29T07:14:34.264Z,17.3
2024-01-29T07:20:30.462Z,16.8
2024-01-29T07:26:09.321Z,17.3
2024-01-29T07:32:05.556Z,17.8
2024-01-29T07:38:01.354Z,17.6
2024-01-29T07:43:58.582Z,17.3
2024-01-29T07:49:53.572Z,17.9
2024-01-29T07:55:49.886Z,17.9
2024-01-29T08:01:45.918Z,17.5
2024-01-29T08:07:42.508Z,17.9
2024-01-29T08:13:37.650Z,18.1
2024-01-29T08:19:37.844Z,17.6
2024-01-29T08:25:33.996Z,17.8
2024-01-29T08:31:27.897Z,18.1
2024-01-29T08:37:25.808Z,17.9
2024-01-29T08:43:20.432Z,17.6
2024-01-29T08:49:17.849Z,18.2
2024-01-29T08:55:15.774Z,18
2024-01-29T09:01:13.366Z,17.6
2024-01-29T09:07:08.647Z,17.8
2024-01-29T09:13:14.996Z,17.8
2024-01-29T09:18:55.611Z,17.7
2024-01-29T09:24:50.134Z,18.1
2024-01-29T09:30:47.242Z,18.6
2024-01-29T09:36:54.843Z,18.1
2024-01-29T09:42:51.049Z,18.2
2024-01-29T09:54:13.377Z,18.3
2024-01-29T10:00:10.373Z,18
2024-01-29T10:06:09.090Z,18.5
2024-01-29T10:11:48.368Z,18.5
2024-01-29T10:17:42.311Z,18.1
2024-01-29T10:23:38.400Z,18.5
2024-01-29T10:29:19.269Z,18.6
2024-01-29T10:34:43.990Z,18.1
2024-01-29T10:40:00.713Z,18.2
2024-01-29T10:45:55.431Z,18.6
2024-01-29T10:51:34.944Z,18.3
2024-01-29T10:57:16.050Z,18.1
2024-01-29T11:03:05.711Z,18.4
2024-01-29T11:08:48.153Z,18.1
2024-01-29T11:14:28.823Z,18.4
2024-01-29T11:20:09.836Z,18.8
2024-01-29T11:26:11.783Z,18.3
2024-01-29T11:31:51.119Z,17.7
2024-01-29T11:38:01.834Z,16.9
2024-01-29T11:43:58.859Z,16.4
2024-01-29T11:49:56.640Z,16.3
2024-01-29T12:01:45.320Z,17.1
2024-01-29T12:07:28.786Z,16.7
2024-01-29T12:13:23.481Z,16.3
2024-01-29T12:19:19.980Z,16.2
2024-01-29T12:25:17.476Z,17.1
2024-01-29T12:31:12.258Z,17.1
2024-01-29T12:36:54.264Z,16.7
2024-01-29T12:42:51.319Z,16.3
2024-01-29T12:48:46.226Z,16.2
2024-01-29T12:54:42.013Z,16.9
2024-01-29T13:06:07.901Z,16.7
2024-01-29T13:12:07.008Z,17.3
2024-01-29T13:18:02.082Z,17.2
2024-01-29T13:29:38.613Z,17.2
2024-01-29T13:41:17.233Z,16.9
2024-01-29T13:47:16.373Z,17.3
2024-01-29T13:53:12.008Z,17.1
2024-01-29T13:59:08.473Z,17.2
2024-01-29T14:05:04.724Z,17.6
2024-01-29T14:11:01.057Z,17.3
2024-01-29T14:17:10.413Z,16.9
2024-01-29T14:23:07.750Z,16.5
2024-01-29T14:29:02.667Z,16.1
2024-01-29T14:35:02.389Z,15.8
2024-01-29T14:41:00.523Z,15.6
2024-01-29T14:46:55.055Z,15.4
2024-01-29T14:52:54.637Z,15.1
2024-01-29T14:58:50.209Z,25.2
2024-01-29T15:04:47.067Z,35.6
2024-01-29T15:10:44.814Z,38.7
2024-01-29T15:16:41.765Z,37.4
2024-01-29T15:22:39.963Z,38.3
2024-01-29T15:28:35.423Z,38.8
2024-01-29T15:34:30.536Z,37.8
2024-01-29T15:40:27.272Z,37
2024-01-29T15:46:27.127Z,35.9
2024-01-29T15:52:25.665Z,38.9
2024-01-29T15:58:19.415Z,34.9
2024-01-29T16:04:14.534Z,41.4
2024-01-29T16:10:09.266Z,37.1
2024-01-29T16:16:05.582Z,39.9
2024-01-29T16:22:03.014Z,41.4
2024-01-29T16:27:57.175Z,40.6
2024-01-29T16:33:52.682Z,38.6
2024-01-29T16:39:49.209Z,37
2024-01-29T16:45:46.815Z,40.3
2024-01-29T16:51:43.263Z,35.8
2024-01-29T16:57:38.386Z,37.2
2024-01-29T17:03:34.600Z,37.3
2024-01-29T17:09:31.560Z,36.1
2024-01-29T17:15:28.086Z,35.1
2024-01-29T17:21:27.586Z,34.3
2024-01-29T17:27:22.043Z,33.5
2024-01-29T17:33:17.899Z,33.6
2024-01-29T17:39:13.187Z,38.3
2024-01-29T17:45:09.257Z,36.2
2024-01-29T17:51:05.113Z,38
2024-01-29T17:57:02.209Z,39.8
2024-01-29T18:02:57.802Z,35.3
2024-01-29T18:08:37.527Z,37.5
2024-01-29T18:14:15.682Z,38.6
2024-01-29T18:19:58.742Z,39
2024-01-29T18:25:39.003Z,38.4
2024-01-29T18:31:34.159Z,38.3
2024-01-29T18:37:29.310Z,38.7
2024-01-29T18:43:23.698Z,42
2024-01-29T18:49:21.447Z,38
2024-01-29T18:55:16.590Z,37.2
2024-01-29T19:01:11.306Z,39.2
2024-01-29T19:07:10.942Z,36.1
2024-01-29T19:13:11.824Z,41.3
2024-01-29T19:19:07.324Z,37.6
2024-01-29T19:24:46.282Z,38.9
2024-01-29T19:30:25.710Z,37.1
2024-01-29T19:36:05.542Z,38.7
2024-01-29T19:42:00.988Z,35.8
2024-01-29T19:47:55.483Z,36.9
2024-01-29T19:53:53.148Z,36.2
2024-01-29T19:59:48.210Z,34.1
2024-01-29T20:05:43.682Z,34.6
2024-01-29T20:11:40.117Z,34.1
2024-01-29T20:17:35.014Z,32.5
2024-01-29T20:23:31.380Z,30.5
2024-01-29T20:29:27.221Z,28.8
2024-01-29T20:35:22.247Z,27.5
2024-01-29T20:41:27.942Z,26.6
2024-01-29T20:47:17.899Z,25.8
2024-01-29T20:53:14.154Z,25.2
2024-01-29T20:59:20.222Z,24.6
2024-01-29T21:05:16.681Z,24
2024-01-29T21:10:57.365Z,23.6
2024-01-29T21:16:53.863Z,23.2
2024-01-29T21:22:49.036Z,22.6
2024-01-29T21:28:43.305Z,21.9
2024-01-29T21:34:40.688Z,21.6
2024-01-29T21:40:19.112Z,21.4
2024-01-29T21:46:13.498Z,21.3
2024-01-29T21:52:09.237Z,21.2
2024-01-29T21:58:03.718Z,21
2024-01-29T22:04:01.298Z,21.1
2024-01-29T22:09:40.527Z,19.9
2024-01-29T22:15:19.710Z,19.8
2024-01-29T22:21:00.190Z,19.8
2024-01-29T22:26:54.403Z,19.4
2024-01-29T22:32:51.710Z,18.9
2024-01-29T22:38:31.434Z,18.3
2024-01-29T22:44:26.126Z,18.1
2024-01-29T22:50:05.433Z,18.8
2024-01-29T22:56:01.842Z,18.9
2024-01-29T23:01:42.733Z,18.6
2024-01-29T23:07:38.345Z,18
2024-01-29T23:13:32.466Z,17.5
2024-01-29T23:19:11.092Z,17.7
2024-01-29T23:25:08.909Z,18.4
2024-01-29T23:31:02.708Z,18.3
2024-01-29T23:36:58.004Z,17.9
2024-01-29T23:42:51.647Z,17.4
2024-01-29T23:48:30.207Z,17.3
2024-01-29T23:54:09.423Z,17.9
2024-01-29T23:59:48.719Z,18.4
